createdAt,value
2018-10-06T00:00:35.041Z,14.50
2018-10-06T00:03:03.442Z,12.63
2018-10-06T00:05:31.863Z,15.70
2018-10-06T00:08:00.257Z,13.13
2018-10-06T00:10:28.698Z,10.73
2018-10-06T00:12:57.772Z,11.70
2018-10-06T00:15:26.187Z,12.97
2018-10-06T00:17:54.594Z,13.17
2018-10-06T00:20:23.322Z,14.47
2018-10-06T00:22:52.058Z,14.73
2018-10-06T00:25:20.478Z,16.00
2018-10-06T00:27:48.902Z,16.10
2018-10-06T00:30:17.280Z,15.07
2018-10-06T00:32:45.699Z,16.93
2018-10-06T00:35:14.102Z,15.73
2018-10-06T00:37:42.505Z,16.93
2018-10-06T00:40:10.933Z,17.20
2018-10-06T00:42:39.325Z,17.50
2018-10-06T00:45:07.789Z,17.87
2018-10-06T00:47:36.256Z,18.30
2018-10-06T00:50:04.768Z,16.27
2018-10-06T00:52:33.208Z,16.60
2018-10-06T00:55:01.596Z,16.30
2018-10-06T00:57:30.016Z,15.50
2018-10-06T00:59:58.425Z,16.90
2018-10-06T01:02:26.805Z,16.70
2018-10-06T01:04:55.192Z,18.00
2018-10-06T01:07:23.926Z,16.90
2018-10-06T01:09:52.310Z,18.30
2018-10-06T01:12:20.688Z,17.73
2018-10-06T01:14:49.121Z,17.53
2018-10-06T01:17:17.513Z,17.80
2018-10-06T01:19:45.925Z,17.60
2018-10-06T01:22:14.321Z,17.13
2018-10-06T01:24:42.713Z,17.83
2018-10-06T01:27:11.117Z,18.43
2018-10-06T01:29:39.515Z,18.20
2018-10-06T01:32:08.745Z,19.00
2018-10-06T01:34:37.653Z,18.07
2018-10-06T01:37:06.243Z,17.87
2018-10-06T01:39:34.635Z,16.60
2018-10-06T01:42:03.046Z,17.37
2018-10-06T01:44:31.428Z,18.60
2018-10-06T01:46:59.825Z,19.30
2018-10-06T01:49:28.228Z,18.60
2018-10-06T01:51:56.633Z,19.00
2018-10-06T01:54:25.076Z,16.83
2018-10-06T01:56:53.453Z,19.80
2018-10-06T01:59:21.836Z,18.17
2018-10-06T02:01:50.265Z,21.73
2018-10-06T02:04:22.876Z,19.83
2018-10-06T02:06:51.432Z,20.97
2018-10-06T02:09:19.861Z,23.33
2018-10-06T02:11:48.253Z,20.47
2018-10-06T02:14:16.624Z,19.23
2018-10-06T02:16:45.057Z,20.00
2018-10-06T02:19:14.117Z,22.07
2018-10-06T02:21:42.501Z,25.17
2018-10-06T02:24:10.900Z,22.70
2018-10-06T02:26:39.303Z,21.77
2018-10-06T02:29:07.689Z,21.13
2018-10-06T02:31:36.085Z,22.27
2018-10-06T02:34:04.518Z,24.03
2018-10-06T02:36:32.909Z,26.40
2018-10-06T02:39:01.304Z,25.90
2018-10-06T02:41:29.704Z,23.20
2018-10-06T02:43:58.097Z,21.30
2018-10-06T02:46:26.500Z,21.83
2018-10-06T02:48:54.910Z,21.07
2018-10-06T02:51:23.304Z,22.00
2018-10-06T02:53:52.244Z,21.07
2018-10-06T02:56:20.733Z,19.30
2018-10-06T02:58:49.125Z,20.53
2018-10-06T03:01:17.559Z,21.27
2018-10-06T03:03:45.948Z,20.10
2018-10-06T03:06:14.381Z,20.67
2018-10-06T03:08:42.829Z,20.47
2018-10-06T03:11:11.203Z,22.60
2018-10-06T03:13:39.605Z,20.23
2018-10-06T03:16:08.438Z,19.53
2018-10-06T03:18:36.855Z,20.30
2018-10-06T03:21:05.298Z,19.97
2018-10-06T03:23:33.688Z,19.20
2018-10-06T03:26:02.106Z,19.87
2018-10-06T03:28:30.493Z,20.10
2018-10-06T03:30:58.916Z,19.30
2018-10-06T03:33:27.312Z,20.80
2018-10-06T03:35:55.692Z,19.50
2018-10-06T03:38:24.088Z,20.37
2018-10-06T03:40:52.467Z,20.17
2018-10-06T03:43:20.872Z,20.10
2018-10-06T03:45:49.256Z,19.70
2018-10-06T03:48:17.650Z,18.47
2018-10-06T03:50:46.037Z,18.47
2018-10-06T03:53:14.440Z,18.33
2018-10-06T03:55:42.908Z,19.53
2018-10-06T03:58:11.304Z,18.93
2018-10-06T04:00:39.697Z,19.20
2018-10-06T04:03:08.144Z,17.60
2018-10-06T04:05:36.524Z,19.13
2018-10-06T04:08:05.124Z,19.03
2018-10-06T04:10:34.443Z,17.93
2018-10-06T04:13:02.834Z,17.93
2018-10-06T04:15:31.236Z,18.20
2018-10-06T04:17:59.889Z,16.73
2018-10-06T04:20:28.530Z,16.40
2018-10-06T04:22:58.841Z,17.27
2018-10-06T04:25:27.213Z,17.93
2018-10-06T04:27:55.604Z,17.90
2018-10-06T04:30:23.984Z,19.07
2018-10-06T04:32:52.374Z,18.13
2018-10-06T04:35:20.809Z,17.93
2018-10-06T04:37:49.213Z,18.00
2018-10-06T04:40:18.229Z,18.27
2018-10-06T04:42:46.612Z,17.80
2018-10-06T04:45:15.188Z,18.80
2018-10-06T04:47:43.568Z,18.40
2018-10-06T04:50:11.954Z,16.73
2018-10-06T04:52:40.352Z,17.13
2018-10-06T04:55:08.725Z,19.03
2018-10-06T04:57:37.134Z,18.23
2018-10-06T05:00:06.417Z,17.87
2018-10-06T05:02:34.789Z,16.70
2018-10-06T05:05:03.227Z,17.40
2018-10-06T05:07:31.605Z,15.80
2018-10-06T05:09:59.993Z,16.50
2018-10-06T05:12:28.393Z,17.47
2018-10-06T05:14:57.064Z,17.47
2018-10-06T05:17:25.444Z,17.90
2018-10-06T05:19:53.877Z,16.97
2018-10-06T05:22:22.658Z,16.17
2018-10-06T05:24:51.839Z,15.40
2018-10-06T05:27:20.242Z,16.83
2018-10-06T05:29:48.659Z,16.77
2018-10-06T05:32:17.073Z,15.80
2018-10-06T05:34:45.647Z,16.37
2018-10-06T05:37:14.813Z,17.00
2018-10-06T05:39:43.220Z,17.50
2018-10-06T05:42:11.629Z,16.23
2018-10-06T05:44:40.022Z,15.80
2018-10-06T05:47:08.481Z,16.43
2018-10-06T05:49:36.980Z,16.20
2018-10-06T05:52:05.638Z,16.20
2018-10-06T05:54:34.060Z,17.10
2018-10-06T05:57:02.477Z,16.60
2018-10-06T05:59:30.873Z,16.00
2018-10-06T06:01:59.261Z,15.53
2018-10-06T06:04:31.464Z,15.50
2018-10-06T06:06:59.861Z,17.20
2018-10-06T06:09:28.869Z,16.60
2018-10-06T06:11:57.246Z,16.40
2018-10-06T06:14:25.628Z,17.60
2018-10-06T06:16:54.025Z,15.57
2018-10-06T06:19:22.445Z,15.37
2018-10-06T06:21:50.857Z,15.07
2018-10-06T06:24:19.277Z,14.83
2018-10-06T06:26:48.392Z,14.60
2018-10-06T06:29:16.793Z,14.10
2018-10-06T06:31:45.365Z,13.70
2018-10-06T06:34:13.816Z,14.07
2018-10-06T06:36:42.216Z,13.63
2018-10-06T06:39:10.740Z,13.50
2018-10-06T06:41:39.396Z,13.17
2018-10-06T06:44:08.353Z,12.60
2018-10-06T06:46:36.996Z,12.97
2018-10-06T06:49:06.060Z,13.77
2018-10-06T06:51:35.113Z,13.40
2018-10-06T06:54:03.506Z,13.57
2018-10-06T06:56:32.005Z,12.50
2018-10-06T06:59:00.665Z,14.10
2018-10-06T07:01:29.049Z,13.60
2018-10-06T07:03:57.437Z,12.40
2018-10-06T07:06:25.869Z,14.27
2018-10-06T07:08:54.274Z,12.33
2018-10-06T07:11:23.305Z,13.17
2018-10-06T07:13:51.725Z,13.37
2018-10-06T07:16:20.137Z,12.53
2018-10-06T07:18:48.544Z,12.83
2018-10-06T07:21:16.954Z,12.00
2018-10-06T07:23:45.381Z,12.33
2018-10-06T07:26:13.780Z,11.83
2018-10-06T07:28:42.177Z,11.77
2018-10-06T07:31:10.688Z,11.20
2018-10-06T07:33:39.120Z,11.53
2018-10-06T07:36:07.545Z,10.93
2018-10-06T07:38:36.105Z,10.30
2018-10-06T07:41:04.549Z,10.43
2018-10-06T07:43:32.949Z,10.73
2018-10-06T07:46:02.648Z,11.10
2018-10-06T07:48:31.077Z,12.03
2018-10-06T07:50:59.612Z,12.80
2018-10-06T07:53:28.021Z,12.57
2018-10-06T07:55:56.416Z,11.97
2018-10-06T07:58:24.853Z,11.80
2018-10-06T08:00:53.267Z,11.87
2018-10-06T08:03:21.693Z,12.20
2018-10-06T08:05:50.688Z,12.67
2018-10-06T08:08:19.372Z,12.00
2018-10-06T08:10:47.801Z,11.67
2018-10-06T08:13:16.201Z,12.60
2018-10-06T08:15:44.640Z,12.53
2018-10-06T08:18:13.021Z,11.83
2018-10-06T08:20:41.423Z,12.00
2018-10-06T08:23:09.924Z,11.60
2018-10-06T08:25:38.365Z,11.27
2018-10-06T08:28:06.759Z,11.53
2018-10-06T08:30:35.190Z,11.20
2018-10-06T08:33:03.594Z,11.03
2018-10-06T08:35:32.054Z,11.23
2018-10-06T08:38:00.896Z,10.40
2018-10-06T08:40:29.736Z,11.37
2018-10-06T08:42:58.313Z,12.07
2018-10-06T08:45:26.997Z,11.13
2018-10-06T08:47:55.432Z,10.60
2018-10-06T08:50:23.893Z,10.37
2018-10-06T08:52:52.491Z,10.70
2018-10-06T08:55:20.905Z,11.00
2018-10-06T08:57:49.329Z,10.43
2018-10-06T09:00:17.822Z,9.40
2018-10-06T09:02:46.356Z,10.70
2018-10-06T09:05:14.762Z,9.97
2018-10-06T09:07:44.052Z,9.97
2018-10-06T09:10:13.032Z,10.10
2018-10-06T09:12:41.714Z,10.93
2018-10-06T09:15:12.267Z,10.40
2018-10-06T09:17:40.818Z,10.47
2018-10-06T09:20:09.217Z,10.27
2018-10-06T09:22:37.659Z,9.13
2018-10-06T09:25:06.121Z,9.80
2018-10-06T09:27:34.537Z,9.50
2018-10-06T09:30:02.991Z,9.60
2018-10-06T09:32:32.396Z,9.93
2018-10-06T09:35:01.656Z,10.20
2018-10-06T09:37:30.049Z,10.40
2018-10-06T09:39:58.680Z,9.20
2018-10-06T09:42:27.183Z,9.73
2018-10-06T09:44:55.581Z,8.97
2018-10-06T09:47:23.956Z,9.10
2018-10-06T09:49:52.361Z,9.13
2018-10-06T09:52:20.965Z,8.80
2018-10-06T09:54:49.433Z,8.20
2018-10-06T09:57:17.866Z,8.93
2018-10-06T09:59:46.517Z,8.27
2018-10-06T10:02:20.415Z,8.27
2018-10-06T10:04:48.789Z,7.73
2018-10-06T10:07:17.193Z,8.13
2018-10-06T10:09:45.680Z,6.83
2018-10-06T10:12:14.923Z,6.60
2018-10-06T10:14:43.305Z,6.87
2018-10-06T10:17:11.767Z,7.50
2018-10-06T10:19:40.140Z,6.70
2018-10-06T10:22:08.660Z,6.17
2018-10-06T10:24:36.932Z,7.33
2018-10-06T10:27:05.404Z,6.60
2018-10-06T10:29:33.784Z,6.07
2018-10-06T10:32:02.201Z,7.07
2018-10-06T10:34:30.652Z,6.60
2018-10-06T10:36:59.009Z,6.50
2018-10-06T10:39:27.648Z,6.57
2018-10-06T10:41:55.928Z,6.50
2018-10-06T10:44:24.436Z,5.50
2018-10-06T10:46:52.760Z,5.23
2018-10-06T10:49:21.209Z,6.53
2018-10-06T10:51:49.640Z,5.00
2018-10-06T10:54:18.073Z,4.37
2018-10-06T10:56:46.465Z,4.83
2018-10-06T10:59:14.973Z,4.40
2018-10-06T11:01:43.365Z,4.87
2018-10-06T11:04:11.798Z,4.83
2018-10-06T11:06:40.223Z,4.43
2018-10-06T11:09:09.081Z,3.70
2018-10-06T11:11:37.788Z,4.10
2018-10-06T11:14:06.246Z,3.70
2018-10-06T11:16:34.657Z,3.40
2018-10-06T11:19:03.331Z,3.70
2018-10-06T11:21:31.769Z,3.60
2018-10-06T11:24:00.180Z,3.77
2018-10-06T11:26:28.848Z,3.70
2018-10-06T11:28:57.269Z,4.10
2018-10-06T11:31:25.677Z,3.50
2018-10-06T11:33:54.099Z,3.30
2018-10-06T11:36:22.489Z,3.43
2018-10-06T11:38:50.897Z,3.67
2018-10-06T11:41:19.280Z,3.70
2018-10-06T11:43:48.458Z,3.53
2018-10-06T11:46:17.225Z,3.57
2018-10-06T11:48:45.621Z,2.97
2018-10-06T11:51:14.141Z,2.87
2018-10-06T11:53:42.537Z,2.70
2018-10-06T11:56:10.956Z,2.60
2018-10-06T11:58:39.342Z,2.60
2018-10-06T12:01:07.880Z,2.63
2018-10-06T12:03:36.651Z,2.77
2018-10-06T12:06:05.133Z,2.10
2018-10-06T12:08:33.567Z,2.13
2018-10-06T12:11:02.028Z,2.00
2018-10-06T12:13:30.426Z,2.13
2018-10-06T12:15:59.090Z,2.20
2018-10-06T12:18:27.493Z,2.60
2018-10-06T12:20:55.929Z,2.27
2018-10-06T12:23:24.425Z,2.43
2018-10-06T12:25:52.864Z,2.50
2018-10-06T12:28:21.214Z,2.60
2018-10-06T12:30:49.625Z,2.60
2018-10-06T12:33:18.033Z,2.50
2018-10-06T12:35:46.474Z,3.00
2018-10-06T12:38:15.772Z,2.90
2018-10-06T12:40:44.233Z,2.47
2018-10-06T12:43:12.665Z,2.63
2018-10-06T12:45:41.077Z,4.87
2018-10-06T12:48:09.465Z,2.73
2018-10-06T12:50:37.880Z,2.70
2018-10-06T12:53:06.325Z,2.60
2018-10-06T12:55:34.712Z,2.37
2018-10-06T12:58:03.196Z,2.73
2018-10-06T13:00:31.718Z,2.63
2018-10-06T13:03:00.126Z,2.50
2018-10-06T13:05:29.205Z,2.77
2018-10-06T13:07:57.632Z,3.00
2018-10-06T13:10:26.031Z,2.90
2018-10-06T13:12:54.452Z,3.20
2018-10-06T13:15:23.497Z,2.60
2018-10-06T13:17:51.897Z,2.43
2018-10-06T13:20:20.288Z,2.40
2018-10-06T13:22:48.709Z,2.90
2018-10-06T13:25:17.084Z,2.80
2018-10-06T13:27:45.528Z,2.53
2018-10-06T13:30:13.925Z,3.23
2018-10-06T13:32:42.359Z,2.97
2018-10-06T13:35:10.769Z,3.00
2018-10-06T13:37:39.453Z,2.70
2018-10-06T13:40:07.928Z,2.90
2018-10-06T13:42:37.010Z,4.77
2018-10-06T13:45:05.492Z,2.80
2018-10-06T13:47:33.909Z,2.83
2018-10-06T13:50:02.329Z,3.03
2018-10-06T13:52:30.832Z,2.50
2018-10-06T13:54:59.235Z,2.83
2018-10-06T13:57:27.717Z,2.43
2018-10-06T13:59:56.160Z,2.70
2018-10-06T14:02:24.645Z,2.97
2018-10-06T14:04:53.141Z,2.70
2018-10-06T14:07:21.624Z,2.50
2018-10-06T14:09:50.016Z,2.70
2018-10-06T14:12:18.469Z,2.90
2018-10-06T14:14:46.884Z,3.07
2018-10-06T14:17:15.536Z,2.63
2018-10-06T14:19:43.957Z,2.97
2018-10-06T14:22:12.409Z,2.87
2018-10-06T14:24:40.816Z,3.07
2018-10-06T14:27:09.242Z,3.13
2018-10-06T14:29:37.649Z,2.70
2018-10-06T14:32:06.216Z,2.30
2018-10-06T14:34:34.635Z,2.53
2018-10-06T14:37:03.043Z,2.27
2018-10-06T14:39:31.488Z,2.80
2018-10-06T14:42:00.044Z,2.60
2018-10-06T14:44:28.585Z,3.20
2018-10-06T14:46:57.044Z,2.73
2018-10-06T14:49:25.444Z,2.70
2018-10-06T14:51:54.417Z,2.57
2018-10-06T14:54:22.845Z,3.20
2018-10-06T14:56:51.311Z,3.23
2018-10-06T14:59:20.320Z,2.73
2018-10-06T15:01:48.752Z,2.60
2018-10-06T15:04:17.184Z,2.33
2018-10-06T15:06:45.597Z,2.50
2018-10-06T15:09:13.989Z,2.70
2018-10-06T15:11:42.385Z,2.77
2018-10-06T15:14:10.805Z,2.10
2018-10-06T15:16:39.209Z,2.60
2018-10-06T15:19:08.541Z,3.07
2018-10-06T15:21:37.054Z,3.10
2018-10-06T15:24:05.440Z,2.37
2018-10-06T15:26:33.864Z,2.97
2018-10-06T15:29:02.404Z,2.60
2018-10-06T15:31:30.833Z,2.63
2018-10-06T15:33:59.230Z,2.57
2018-10-06T15:36:27.972Z,2.37
2018-10-06T15:38:56.336Z,2.43
2018-10-06T15:41:24.761Z,2.53
2018-10-06T15:43:53.168Z,4.27
2018-10-06T15:46:22.245Z,2.83
2018-10-06T15:48:50.744Z,2.57
2018-10-06T15:51:19.176Z,2.67
2018-10-06T15:53:47.630Z,2.70
2018-10-06T15:56:16.115Z,2.57
2018-10-06T15:58:44.625Z,2.70
2018-10-06T16:01:13.081Z,2.50
2018-10-06T16:03:41.499Z,2.80
2018-10-06T16:06:10.042Z,2.70
2018-10-06T16:08:38.553Z,2.63
2018-10-06T16:11:07.039Z,2.57
2018-10-06T16:13:38.949Z,2.80
2018-10-06T16:16:07.381Z,2.80
2018-10-06T16:18:40.647Z,2.90
2018-10-06T16:21:10.182Z,2.93
2018-10-06T16:23:39.809Z,2.97
2018-10-06T16:26:14.260Z,2.60
2018-10-06T16:28:42.832Z,2.80
2018-10-06T16:31:11.332Z,2.60
2018-10-06T16:33:39.818Z,2.77
2018-10-06T16:36:08.352Z,3.40
2018-10-06T16:38:37.504Z,3.20
2018-10-06T16:41:05.991Z,2.63
2018-10-06T16:43:34.628Z,2.67
2018-10-06T16:46:03.150Z,2.47
2018-10-06T16:48:31.574Z,3.00
2018-10-06T16:51:01.101Z,2.73
2018-10-06T16:53:29.549Z,2.70
2018-10-06T16:55:58.940Z,3.00
2018-10-06T16:58:27.369Z,2.63
2018-10-06T17:01:10.397Z,2.80
2018-10-06T17:03:44.122Z,2.60
2018-10-06T17:06:12.659Z,2.90
2018-10-06T17:08:42.060Z,3.27
2018-10-06T17:11:10.488Z,2.60
2018-10-06T17:13:38.906Z,2.83
2018-10-06T17:16:07.917Z,2.70
2018-10-06T17:18:36.368Z,3.00
2018-10-06T17:21:04.720Z,3.30
2018-10-06T17:23:33.141Z,3.30
2018-10-06T17:26:01.593Z,3.30
2018-10-06T17:28:29.990Z,2.93
2018-10-06T17:30:58.458Z,3.10
2018-10-06T17:33:26.829Z,3.03
2018-10-06T17:35:55.361Z,2.87
2018-10-06T17:38:23.838Z,4.00
2018-10-06T17:40:52.276Z,3.00
2018-10-06T17:43:20.800Z,3.30
2018-10-06T17:45:49.249Z,3.00
2018-10-06T17:48:17.901Z,3.23
2018-10-06T17:50:47.339Z,3.77
2018-10-06T17:53:17.373Z,3.23
2018-10-06T17:55:45.812Z,3.50
2018-10-06T17:58:14.243Z,3.80
2018-10-06T18:00:42.649Z,3.67
2018-10-06T18:03:11.057Z,5.00
2018-10-06T18:05:39.529Z,4.87
2018-10-06T18:08:07.938Z,3.90
2018-10-06T18:10:36.410Z,3.93
2018-10-06T18:13:04.855Z,3.77
2018-10-06T18:15:34.105Z,4.63
2018-10-06T18:18:02.508Z,3.90
2018-10-06T18:20:30.992Z,3.77
2018-10-06T18:22:59.357Z,4.00
2018-10-06T18:25:28.622Z,4.10
2018-10-06T18:27:57.020Z,4.77
2018-10-06T18:30:25.429Z,4.00
2018-10-06T18:32:53.893Z,3.83
2018-10-06T18:35:22.309Z,3.70
2018-10-06T18:37:50.789Z,3.67
2018-10-06T18:40:19.247Z,4.43
2018-10-06T18:42:47.645Z,4.60
2018-10-06T18:45:16.080Z,4.97
2018-10-06T18:47:44.487Z,5.33
2018-10-06T18:50:12.941Z,6.23
2018-10-06T18:52:41.365Z,5.13
2018-10-06T18:55:09.792Z,5.03
2018-10-06T18:57:38.243Z,5.30
2018-10-06T19:00:07.456Z,5.03
2018-10-06T19:02:35.950Z,4.83
2018-10-06T19:05:04.481Z,5.57
2018-10-06T19:07:33.554Z,5.23
2018-10-06T19:10:01.978Z,5.87
2018-10-06T19:12:30.358Z,5.83
2018-10-06T19:14:59.248Z,6.47
2018-10-06T19:17:27.701Z,6.73
2018-10-06T19:19:56.248Z,10.00
2018-10-06T19:22:24.761Z,6.73
2018-10-06T19:24:53.161Z,6.93
2018-10-06T19:27:21.589Z,4.90
2018-10-06T19:29:49.977Z,5.80
2018-10-06T19:32:18.848Z,6.87
2018-10-06T19:34:47.278Z,7.80
2018-10-06T19:37:15.677Z,8.80
2018-10-06T19:39:44.101Z,7.13
2018-10-06T19:42:12.509Z,7.80
2018-10-06T19:44:40.938Z,7.10
2018-10-06T19:47:09.382Z,6.43
2018-10-06T19:49:37.800Z,6.93
2018-10-06T19:52:06.435Z,6.97
2018-10-06T19:54:34.860Z,6.73
2018-10-06T19:57:03.285Z,7.97
2018-10-06T19:59:31.716Z,7.90
2018-10-06T20:02:00.169Z,8.87
2018-10-06T20:04:28.598Z,9.63
2018-10-06T20:06:57.004Z,8.00
2018-10-06T20:09:25.441Z,9.40
2018-10-06T20:11:53.902Z,8.43
2018-10-06T20:14:23.416Z,9.00
2018-10-06T20:16:53.025Z,9.13
2018-10-06T20:19:21.462Z,8.40
2018-10-06T20:21:50.521Z,10.20
2018-10-06T20:24:18.994Z,10.27
2018-10-06T20:26:47.392Z,9.97
2018-10-06T20:29:15.780Z,9.97
2018-10-06T20:31:44.945Z,9.80
2018-10-06T20:34:13.399Z,10.20
2018-10-06T20:36:41.829Z,10.97
2018-10-06T20:39:10.844Z,10.83
2018-10-06T20:41:39.330Z,11.10
2018-10-06T20:44:07.784Z,11.17
2018-10-06T20:46:36.253Z,11.80
2018-10-06T20:49:04.694Z,11.67
2018-10-06T20:51:33.109Z,12.47
2018-10-06T20:54:01.518Z,12.17
2018-10-06T20:56:30.936Z,13.40
2018-10-06T20:58:59.636Z,12.50
2018-10-06T21:01:28.065Z,14.00
2018-10-06T21:03:56.453Z,16.20
2018-10-06T21:06:37.455Z,19.50
2018-10-06T21:09:09.697Z,17.20
2018-10-06T21:11:38.141Z,18.40
2018-10-06T21:14:06.550Z,16.97
2018-10-06T21:16:34.964Z,19.53
2018-10-06T21:19:03.374Z,17.90
2018-10-06T21:21:31.823Z,18.37
2018-10-06T21:24:00.233Z,18.13
2018-10-06T21:26:28.659Z,18.80
2018-10-06T21:28:57.116Z,18.83
2018-10-06T21:31:25.688Z,18.77
2018-10-06T21:33:54.316Z,21.27
2018-10-06T21:36:22.744Z,21.20
2018-10-06T21:38:51.187Z,22.57
2018-10-06T21:41:19.657Z,23.40
2018-10-06T21:43:48.053Z,25.97
2018-10-06T21:46:16.445Z,27.10
2018-10-06T21:48:44.881Z,29.00
2018-10-06T21:51:13.609Z,30.10
2018-10-06T21:53:42.142Z,30.50
2018-10-06T21:56:10.649Z,31.83
2018-10-06T21:58:39.236Z,31.87
2018-10-06T22:01:10.963Z,34.10
2018-10-06T22:03:40.066Z,33.77
2018-10-06T22:06:09.168Z,36.50
2018-10-06T22:08:37.825Z,37.73
2018-10-06T22:11:06.291Z,38.70
2018-10-06T22:13:34.677Z,37.43
2018-10-06T22:16:03.151Z,37.67
2018-10-06T22:18:31.541Z,36.57
2018-10-06T22:21:00.065Z,40.17
2018-10-06T22:23:28.475Z,38.20
2018-10-06T22:25:56.880Z,38.77
2018-10-06T22:28:25.301Z,38.10
2018-10-06T22:30:53.716Z,37.63
2018-10-06T22:33:22.272Z,36.73
2018-10-06T22:35:50.685Z,37.63
2018-10-06T22:38:19.529Z,36.90
2018-10-06T22:40:48.204Z,36.17
2018-10-06T22:43:16.601Z,37.33
2018-10-06T22:45:45.025Z,36.20
2018-10-06T22:48:13.445Z,36.13
2018-10-06T22:50:41.865Z,37.83
2018-10-06T22:53:10.316Z,37.87
2018-10-06T22:55:38.712Z,38.73
2018-10-06T22:58:07.214Z,37.50
2018-10-06T23:00:35.641Z,39.77
2018-10-06T23:03:04.053Z,38.07
2018-10-06T23:05:32.448Z,39.27
2018-10-06T23:08:01.648Z,40.60
2018-10-06T23:10:30.120Z,38.97
2018-10-06T23:12:58.521Z,41.43
2018-10-06T23:15:27.412Z,40.13
2018-10-06T23:17:55.821Z,40.73
2018-10-06T23:20:24.217Z,45.53
2018-10-06T23:22:52.611Z,45.53
2018-10-06T23:25:21.001Z,42.50
2018-10-06T23:27:49.409Z,45.60
2018-10-06T23:30:17.955Z,46.07
2018-10-06T23:32:46.373Z,47.67
2018-10-06T23:35:15.716Z,45.23
2018-10-06T23:37:44.148Z,45.00
2018-10-06T23:40:12.575Z,45.20
2018-10-06T23:42:41.060Z,47.43
2018-10-06T23:45:09.479Z,47.63
2018-10-06T23:47:37.893Z,48.00
2018-10-06T23:50:06.410Z,47.10
2018-10-06T23:52:34.921Z,49.70
2018-10-06T23:55:04.104Z,49.50
2018-10-06T23:57:40.538Z,48.40
